WMT2400 LATI-LIBP
Flight info
| Callsign | WMT2400 |
|---|---|
| Flight time | 0h 56m |
| Altitude | 36000 |
| Route | DIRES DCT PAPIZ DCT ENOXA DCT BANAV DCT GARGA DCT RIVAM/N0372F180 M169 ERPOG |
| Aircraft | A21N/M-SDE3FGHIRWY/LB1 |
Departure
| Time | 2026-05-05 11:31 |
|---|---|
| Airport | Tirana International Airport Mother Teresa (LATI) |
Arrival
| Time | 2026-05-05 12:27 |
|---|---|
| Airport | Abruzzo Airport (LIBP) |
| Time | Latitude | Longitude | Altitude | Speed | Heading |
|---|---|---|---|---|---|
| 2026-05-05 11:23 | 41.41794 | 19.71515 | 123 ft | 0 kts | 263° |
| 2026-05-05 11:23 | 41.41795 | 19.71527 | 123 ft | 2 kts | 263° |
| 2026-05-05 11:23 | 41.41797 | 19.71547 | 123 ft | 2 kts | 263° |
| 2026-05-05 11:24 | 41.41798 | 19.71560 | 124 ft | 2 kts | 263° |
| 2026-05-05 11:24 | 41.41803 | 19.71579 | 124 ft | 2 kts | 233° |
| 2026-05-05 11:24 | 41.41814 | 19.71592 | 124 ft | 2 kts | 210° |
| 2026-05-05 11:24 | 41.41828 | 19.71599 | 124 ft | 2 kts | 186° |
| 2026-05-05 11:25 | 41.41836 | 19.71600 | 124 ft | 1 kts | 172° |
| 2026-05-05 11:25 | 41.41841 | 19.71599 | 124 ft | 0 kts | 174° |
| 2026-05-05 11:27 | 41.41799 | 19.71604 | 124 ft | 10 kts | 175° |
| 2026-05-05 11:27 | 41.41729 | 19.71612 | 125 ft | 10 kts | 175° |
| 2026-05-05 11:27 | 41.41625 | 19.71625 | 126 ft | 24 kts | 174° |
| 2026-05-05 11:27 | 41.41459 | 19.71647 | 128 ft | 23 kts | 174° |
| 2026-05-05 11:28 | 41.41301 | 19.71667 | 129 ft | 21 kts | 174° |
| 2026-05-05 11:28 | 41.41155 | 19.71686 | 131 ft | 20 kts | 174° |
| 2026-05-05 11:28 | 41.41014 | 19.71706 | 131 ft | 19 kts | 173° |
| 2026-05-05 11:28 | 41.40874 | 19.71735 | 132 ft | 20 kts | 169° |
| 2026-05-05 11:29 | 41.40734 | 19.71759 | 133 ft | 19 kts | 175° |
| 2026-05-05 11:29 | 41.40638 | 19.71840 | 134 ft | 17 kts | 93° |
| 2026-05-05 11:29 | 41.40661 | 19.71986 | 134 ft | 14 kts | 77° |
| 2026-05-05 11:29 | 41.40686 | 19.72118 | 135 ft | 14 kts | 64° |
| 2026-05-05 11:30 | 41.40812 | 19.72143 | 134 ft | 35 kts | 354° |
| 2026-05-05 11:30 | 41.41276 | 19.72081 | 131 ft | 99 kts | 354° |
| 2026-05-05 11:30 | 41.42179 | 19.71965 | 122 ft | 156 kts | 354° |
| 2026-05-05 11:30 | 41.43373 | 19.71814 | 401 ft | 177 kts | 354° |
| 2026-05-05 11:31 | 41.44614 | 19.71631 | 963 ft | 182 kts | 352° |
| 2026-05-05 11:31 | 41.45871 | 19.71456 | 1607 ft | 183 kts | 353° |
| 2026-05-05 11:31 | 41.47137 | 19.71311 | 2104 ft | 185 kts | 354° |
| 2026-05-05 11:31 | 41.48451 | 19.71166 | 2365 ft | 194 kts | 353° |
| 2026-05-05 11:32 | 41.49823 | 19.70992 | 2648 ft | 203 kts | 353° |
| 2026-05-05 11:32 | 41.51248 | 19.70738 | 3007 ft | 209 kts | 344° |
| 2026-05-05 11:32 | 41.52409 | 19.69585 | 3224 ft | 219 kts | 298° |
| 2026-05-05 11:32 | 41.52619 | 19.67538 | 3432 ft | 236 kts | 259° |
| 2026-05-05 11:33 | 41.51873 | 19.65548 | 3719 ft | 252 kts | 224° |
| 2026-05-05 11:33 | 41.50284 | 19.64485 | 4061 ft | 268 kts | 190° |
| 2026-05-05 11:33 | 41.48423 | 19.64248 | 4687 ft | 271 kts | 184° |
| 2026-05-05 11:33 | 41.46556 | 19.64076 | 5433 ft | 271 kts | 184° |
| 2026-05-05 11:34 | 41.44667 | 19.63930 | 6180 ft | 271 kts | 181° |
| 2026-05-05 11:34 | 41.42814 | 19.63742 | 6902 ft | 272 kts | 186° |
| 2026-05-05 11:34 | 41.40926 | 19.63413 | 7562 ft | 276 kts | 188° |
| 2026-05-05 11:34 | 41.38997 | 19.63047 | 8181 ft | 282 kts | 188° |
| 2026-05-05 11:35 | 41.37036 | 19.62688 | 8810 ft | 287 kts | 188° |
| 2026-05-05 11:35 | 41.35060 | 19.62345 | 9454 ft | 290 kts | 188° |
| 2026-05-05 11:35 | 41.33055 | 19.62003 | 10086 ft | 294 kts | 188° |
| 2026-05-05 11:35 | 41.31009 | 19.61659 | 10543 ft | 304 kts | 188° |
| 2026-05-05 11:36 | 41.28857 | 19.61166 | 10825 ft | 319 kts | 199° |
| 2026-05-05 11:36 | 41.26911 | 19.59665 | 11096 ft | 332 kts | 224° |
| 2026-05-05 11:36 | 41.25486 | 19.57260 | 11541 ft | 338 kts | 237° |
| 2026-05-05 11:36 | 41.24164 | 19.54636 | 12143 ft | 341 kts | 237° |
| 2026-05-05 11:37 | 41.22837 | 19.52030 | 12740 ft | 345 kts | 237° |
| 2026-05-05 11:37 | 41.21497 | 19.49422 | 13338 ft | 348 kts | 237° |
| 2026-05-05 11:37 | 41.20126 | 19.46767 | 13918 ft | 350 kts | 237° |
| 2026-05-05 11:37 | 41.18736 | 19.44091 | 14502 ft | 352 kts | 237° |
| 2026-05-05 11:38 | 41.17343 | 19.41415 | 15120 ft | 354 kts | 237° |
| 2026-05-05 11:38 | 41.15951 | 19.38738 | 15685 ft | 356 kts | 237° |
| 2026-05-05 11:38 | 41.14537 | 19.36026 | 16272 ft | 358 kts | 237° |
| 2026-05-05 11:38 | 41.13135 | 19.33338 | 16802 ft | 360 kts | 237° |
| 2026-05-05 11:39 | 41.11691 | 19.30574 | 17313 ft | 363 kts | 237° |
| 2026-05-05 11:39 | 41.10262 | 19.27842 | 17851 ft | 365 kts | 237° |
| 2026-05-05 11:39 | 41.08817 | 19.25083 | 18350 ft | 368 kts | 237° |
| 2026-05-05 11:39 | 41.07357 | 19.22294 | 18862 ft | 370 kts | 238° |
| 2026-05-05 11:40 | 41.05830 | 19.19568 | 19322 ft | 374 kts | 235° |
| 2026-05-05 11:40 | 41.04132 | 19.16903 | 19824 ft | 377 kts | 231° |
| 2026-05-05 11:40 | 41.02383 | 19.14341 | 20254 ft | 380 kts | 231° |
| 2026-05-05 11:40 | 41.00614 | 19.11766 | 20675 ft | 383 kts | 231° |
| 2026-05-05 11:41 | 40.98795 | 19.09121 | 21104 ft | 386 kts | 231° |
| 2026-05-05 11:41 | 40.97001 | 19.06521 | 21527 ft | 388 kts | 231° |
| 2026-05-05 11:41 | 40.95179 | 19.03881 | 21968 ft | 390 kts | 232° |
| 2026-05-05 11:41 | 40.93338 | 19.01215 | 22388 ft | 392 kts | 232° |
| 2026-05-05 11:42 | 40.91589 | 18.98505 | 22773 ft | 390 kts | 240° |
| 2026-05-05 11:42 | 40.90485 | 18.95277 | 23142 ft | 383 kts | 259° |
| 2026-05-05 11:42 | 40.90234 | 18.91831 | 23543 ft | 378 kts | 276° |
| 2026-05-05 11:42 | 40.90774 | 18.88485 | 23938 ft | 375 kts | 290° |
| 2026-05-05 11:43 | 40.91607 | 18.85188 | 24357 ft | 376 kts | 290° |
| 2026-05-05 11:43 | 40.92419 | 18.81941 | 24721 ft | 379 kts | 290° |
| 2026-05-05 11:43 | 40.93244 | 18.78621 | 24977 ft | 383 kts | 290° |
| 2026-05-05 11:43 | 40.94075 | 18.75262 | 25296 ft | 386 kts | 289° |
| 2026-05-05 11:44 | 40.94900 | 18.71908 | 25655 ft | 387 kts | 290° |
| 2026-05-05 11:44 | 40.95736 | 18.68517 | 26037 ft | 388 kts | 289° |
| 2026-05-05 11:44 | 40.96565 | 18.65148 | 26398 ft | 388 kts | 289° |
| 2026-05-05 11:44 | 40.97393 | 18.61768 | 26754 ft | 389 kts | 289° |
| 2026-05-05 11:45 | 40.98227 | 18.58352 | 27079 ft | 390 kts | 289° |
| 2026-05-05 11:45 | 40.99061 | 18.54940 | 27411 ft | 391 kts | 289° |
| 2026-05-05 11:45 | 40.99897 | 18.51508 | 27749 ft | 392 kts | 289° |
| 2026-05-05 11:45 | 41.00724 | 18.48114 | 28032 ft | 393 kts | 289° |
| 2026-05-05 11:46 | 41.01566 | 18.44643 | 28323 ft | 395 kts | 289° |
| 2026-05-05 11:46 | 41.02401 | 18.41202 | 28610 ft | 396 kts | 289° |
| 2026-05-05 11:46 | 41.03238 | 18.37747 | 28897 ft | 397 kts | 289° |
| 2026-05-05 11:46 | 41.04081 | 18.34267 | 29171 ft | 398 kts | 288° |
| 2026-05-05 11:47 | 41.04920 | 18.30792 | 29450 ft | 399 kts | 288° |
| 2026-05-05 11:47 | 41.05763 | 18.27298 | 29735 ft | 400 kts | 288° |
| 2026-05-05 11:47 | 41.06605 | 18.23803 | 30032 ft | 400 kts | 288° |
| 2026-05-05 11:47 | 41.07455 | 18.20266 | 30404 ft | 399 kts | 288° |
| 2026-05-05 11:48 | 41.09123 | 18.13312 | 31106 ft | 396 kts | 288° |
| 2026-05-05 11:48 | 41.09951 | 18.09854 | 31480 ft | 394 kts | 288° |
| 2026-05-05 11:48 | 41.10775 | 18.06407 | 31825 ft | 392 kts | 288° |
| 2026-05-05 11:49 | 41.11585 | 18.03008 | 32128 ft | 392 kts | 288° |
| 2026-05-05 11:49 | 41.12398 | 17.99588 | 32451 ft | 390 kts | 288° |
| 2026-05-05 11:49 | 41.13216 | 17.96157 | 32812 ft | 388 kts | 288° |
| 2026-05-05 11:49 | 41.14014 | 17.92800 | 33153 ft | 385 kts | 288° |
| 2026-05-05 11:50 | 41.14817 | 17.89421 | 33458 ft | 384 kts | 288° |
| 2026-05-05 11:50 | 41.15615 | 17.86056 | 33774 ft | 382 kts | 288° |
| 2026-05-05 11:50 | 41.16404 | 17.82716 | 34066 ft | 380 kts | 288° |
| 2026-05-05 11:50 | 41.17188 | 17.79398 | 34354 ft | 379 kts | 288° |
| 2026-05-05 11:51 | 41.18041 | 17.76125 | 34625 ft | 377 kts | 291° |
| 2026-05-05 11:51 | 41.19075 | 17.72934 | 34755 ft | 378 kts | 295° |
| 2026-05-05 11:51 | 41.20295 | 17.69810 | 34865 ft | 380 kts | 298° |
| 2026-05-05 11:51 | 41.21667 | 17.66840 | 34975 ft | 382 kts | 302° |
| 2026-05-05 11:52 | 41.23229 | 17.63960 | 35118 ft | 384 kts | 306° |
| 2026-05-05 11:52 | 41.24950 | 17.61228 | 35250 ft | 386 kts | 309° |
| 2026-05-05 11:52 | 41.26818 | 17.58675 | 35387 ft | 388 kts | 313° |
| 2026-05-05 11:52 | 41.28782 | 17.56198 | 35465 ft | 390 kts | 313° |
| 2026-05-05 11:53 | 41.32752 | 17.51254 | 35653 ft | 393 kts | 313° |
| 2026-05-05 11:53 | 41.34732 | 17.48793 | 35807 ft | 393 kts | 313° |
| 2026-05-05 11:53 | 41.36732 | 17.46311 | 35924 ft | 393 kts | 313° |
| 2026-05-05 11:54 | 41.38712 | 17.43851 | 36026 ft | 394 kts | 313° |
| 2026-05-05 11:54 | 41.40731 | 17.41338 | 36048 ft | 396 kts | 313° |
| 2026-05-05 11:54 | 41.44744 | 17.36343 | 36052 ft | 396 kts | 313° |
| 2026-05-05 11:55 | 41.48771 | 17.31326 | 36055 ft | 397 kts | 313° |
| 2026-05-05 11:55 | 41.52794 | 17.26302 | 36051 ft | 398 kts | 313° |
| 2026-05-05 11:56 | 41.56819 | 17.21266 | 36054 ft | 397 kts | 312° |
| 2026-05-05 11:56 | 41.60835 | 17.16230 | 36058 ft | 398 kts | 313° |
| 2026-05-05 11:57 | 41.64857 | 17.11178 | 36058 ft | 399 kts | 313° |
| 2026-05-05 11:57 | 41.68918 | 17.06069 | 36057 ft | 400 kts | 313° |
| 2026-05-05 11:58 | 41.72841 | 17.00884 | 36053 ft | 398 kts | 309° |
| 2026-05-05 11:58 | 41.76414 | 16.95262 | 36051 ft | 398 kts | 306° |
| 2026-05-05 11:59 | 41.79925 | 16.89503 | 36051 ft | 399 kts | 306° |
| 2026-05-05 11:59 | 41.83402 | 16.83778 | 36050 ft | 399 kts | 306° |
| 2026-05-05 12:00 | 41.86906 | 16.77997 | 36049 ft | 399 kts | 306° |
| 2026-05-05 12:00 | 41.90395 | 16.72237 | 36054 ft | 400 kts | 306° |
| 2026-05-05 12:01 | 41.93891 | 16.66451 | 36062 ft | 400 kts | 306° |
| 2026-05-05 12:01 | 41.97387 | 16.60652 | 36063 ft | 400 kts | 306° |
| 2026-05-05 12:02 | 42.00885 | 16.54838 | 36058 ft | 401 kts | 306° |
| 2026-05-05 12:02 | 42.04382 | 16.49017 | 36057 ft | 401 kts | 306° |
| 2026-05-05 12:03 | 42.07857 | 16.43223 | 36049 ft | 401 kts | 306° |
| 2026-05-05 12:03 | 42.11351 | 16.37382 | 36064 ft | 400 kts | 306° |
| 2026-05-05 12:04 | 42.13074 | 16.34500 | 35773 ft | 390 kts | 305° |
| 2026-05-05 12:04 | 42.14775 | 16.31655 | 34727 ft | 394 kts | 304° |
| 2026-05-05 12:04 | 42.16489 | 16.28781 | 32981 ft | 406 kts | 304° |
| 2026-05-05 12:04 | 42.18261 | 16.25802 | 31553 ft | 413 kts | 304° |
| 2026-05-05 12:05 | 42.20039 | 16.22812 | 31006 ft | 416 kts | 304° |
| 2026-05-05 12:05 | 42.21853 | 16.19761 | 30358 ft | 420 kts | 304° |
| 2026-05-05 12:05 | 42.23694 | 16.16659 | 29638 ft | 421 kts | 304° |
| 2026-05-05 12:05 | 42.25501 | 16.13615 | 29081 ft | 416 kts | 304° |
| 2026-05-05 12:06 | 42.27359 | 16.10656 | 28603 ft | 412 kts | 307° |
| 2026-05-05 12:06 | 42.29245 | 16.07847 | 28140 ft | 407 kts | 308° |
| 2026-05-05 12:06 | 42.31157 | 16.05028 | 27648 ft | 404 kts | 308° |
| 2026-05-05 12:06 | 42.33042 | 16.02251 | 27155 ft | 400 kts | 308° |
| 2026-05-05 12:07 | 42.34893 | 15.99523 | 26672 ft | 397 kts | 308° |
| 2026-05-05 12:07 | 42.36758 | 15.96769 | 26174 ft | 393 kts | 308° |
| 2026-05-05 12:07 | 42.38584 | 15.94075 | 25688 ft | 390 kts | 308° |
| 2026-05-05 12:07 | 42.40394 | 15.91396 | 25204 ft | 387 kts | 308° |
| 2026-05-05 12:08 | 42.42216 | 15.88697 | 24714 ft | 384 kts | 308° |
| 2026-05-05 12:08 | 42.44003 | 15.86046 | 24223 ft | 382 kts | 308° |
| 2026-05-05 12:08 | 42.45762 | 15.83435 | 23742 ft | 379 kts | 308° |
| 2026-05-05 12:08 | 42.47533 | 15.80791 | 23248 ft | 377 kts | 307° |
| 2026-05-05 12:09 | 42.48936 | 15.77877 | 22730 ft | 368 kts | 291° |
| 2026-05-05 12:09 | 42.49654 | 15.74584 | 22253 ft | 361 kts | 276° |
| 2026-05-05 12:09 | 42.49726 | 15.71271 | 21822 ft | 356 kts | 266° |
| 2026-05-05 12:09 | 42.49608 | 15.67913 | 21331 ft | 355 kts | 266° |
| 2026-05-05 12:10 | 42.49480 | 15.64593 | 20859 ft | 354 kts | 266° |
| 2026-05-05 12:10 | 42.49355 | 15.61291 | 20399 ft | 352 kts | 266° |
| 2026-05-05 12:10 | 42.49231 | 15.58003 | 19928 ft | 351 kts | 266° |
| 2026-05-05 12:10 | 42.49112 | 15.54745 | 19482 ft | 350 kts | 266° |
| 2026-05-05 12:11 | 42.48992 | 15.51459 | 19017 ft | 349 kts | 266° |
| 2026-05-05 12:11 | 42.48873 | 15.48206 | 18555 ft | 348 kts | 266° |
| 2026-05-05 12:11 | 42.48753 | 15.44943 | 18083 ft | 347 kts | 267° |
| 2026-05-05 12:11 | 42.48633 | 15.41692 | 17627 ft | 346 kts | 267° |
| 2026-05-05 12:12 | 42.48512 | 15.38432 | 17152 ft | 346 kts | 267° |
| 2026-05-05 12:12 | 42.48391 | 15.35211 | 16689 ft | 345 kts | 267° |
| 2026-05-05 12:12 | 42.48271 | 15.32003 | 16379 ft | 338 kts | 266° |
| 2026-05-05 12:12 | 42.48152 | 15.28870 | 16186 ft | 328 kts | 266° |
| 2026-05-05 12:13 | 42.48038 | 15.25874 | 16043 ft | 317 kts | 266° |
| 2026-05-05 12:13 | 42.47924 | 15.22912 | 15863 ft | 308 kts | 266° |
| 2026-05-05 12:13 | 42.47816 | 15.20109 | 15747 ft | 297 kts | 266° |
| 2026-05-05 12:13 | 42.47711 | 15.17326 | 15386 ft | 295 kts | 266° |
| 2026-05-05 12:14 | 42.47607 | 15.14560 | 14993 ft | 295 kts | 267° |
| 2026-05-05 12:14 | 42.47503 | 15.11811 | 14612 ft | 294 kts | 267° |
| 2026-05-05 12:14 | 42.47399 | 15.09045 | 14227 ft | 292 kts | 267° |
| 2026-05-05 12:14 | 42.47295 | 15.06325 | 13858 ft | 292 kts | 267° |
| 2026-05-05 12:15 | 42.47191 | 15.03602 | 13485 ft | 291 kts | 267° |
| 2026-05-05 12:15 | 42.47086 | 15.00877 | 13103 ft | 290 kts | 268° |
| 2026-05-05 12:15 | 42.46982 | 14.98158 | 12733 ft | 289 kts | 268° |
| 2026-05-05 12:15 | 42.46877 | 14.95450 | 12359 ft | 288 kts | 268° |
| 2026-05-05 12:16 | 42.46773 | 14.92770 | 11986 ft | 287 kts | 268° |
| 2026-05-05 12:16 | 42.46666 | 14.90057 | 11635 ft | 286 kts | 268° |
| 2026-05-05 12:16 | 42.46561 | 14.87394 | 11270 ft | 285 kts | 268° |
| 2026-05-05 12:16 | 42.46456 | 14.84736 | 10910 ft | 284 kts | 268° |
| 2026-05-05 12:17 | 42.46350 | 14.82081 | 10548 ft | 283 kts | 268° |
| 2026-05-05 12:17 | 42.46244 | 14.79446 | 10191 ft | 282 kts | 268° |
| 2026-05-05 12:17 | 42.46136 | 14.76797 | 9816 ft | 280 kts | 268° |
| 2026-05-05 12:17 | 42.46030 | 14.74194 | 9491 ft | 278 kts | 268° |
| 2026-05-05 12:18 | 42.45925 | 14.71597 | 9151 ft | 278 kts | 268° |
| 2026-05-05 12:18 | 42.45829 | 14.68977 | 8786 ft | 277 kts | 269° |
| 2026-05-05 12:18 | 42.45736 | 14.66407 | 8406 ft | 275 kts | 269° |
| 2026-05-05 12:18 | 42.45641 | 14.63810 | 8076 ft | 274 kts | 269° |
| 2026-05-05 12:19 | 42.45546 | 14.61245 | 7737 ft | 273 kts | 269° |
| 2026-05-05 12:19 | 42.45451 | 14.58690 | 7433 ft | 270 kts | 269° |
| 2026-05-05 12:19 | 42.45520 | 14.56230 | 7278 ft | 260 kts | 286° |
| 2026-05-05 12:19 | 42.46455 | 14.54238 | 7072 ft | 254 kts | 320° |
| 2026-05-05 12:20 | 42.48055 | 14.53208 | 6717 ft | 257 kts | 343° |
| 2026-05-05 12:20 | 42.49775 | 14.52600 | 6382 ft | 256 kts | 342° |
| 2026-05-05 12:20 | 42.51472 | 14.51944 | 6140 ft | 252 kts | 341° |
| 2026-05-05 12:20 | 42.53159 | 14.51264 | 5779 ft | 253 kts | 341° |
| 2026-05-05 12:21 | 42.54781 | 14.50394 | 5581 ft | 243 kts | 324° |
| 2026-05-05 12:21 | 42.55974 | 14.48841 | 5307 ft | 238 kts | 307° |
| 2026-05-05 12:21 | 42.56971 | 14.47074 | 4985 ft | 239 kts | 306° |
| 2026-05-05 12:21 | 42.57969 | 14.45278 | 4663 ft | 239 kts | 306° |
| 2026-05-05 12:22 | 42.58973 | 14.43492 | 4350 ft | 240 kts | 307° |
| 2026-05-05 12:22 | 42.59998 | 14.41687 | 4026 ft | 241 kts | 307° |
| 2026-05-05 12:22 | 42.60979 | 14.39831 | 3679 ft | 242 kts | 295° |
| 2026-05-05 12:22 | 42.61305 | 14.37631 | 3368 ft | 239 kts | 263° |
| 2026-05-05 12:23 | 42.60739 | 14.35609 | 3248 ft | 230 kts | 232° |
| 2026-05-05 12:23 | 42.59490 | 14.34334 | 3185 ft | 220 kts | 205° |
| 2026-05-05 12:23 | 42.58120 | 14.33480 | 3106 ft | 218 kts | 207° |
| 2026-05-05 12:23 | 42.56803 | 14.32437 | 2928 ft | 219 kts | 214° |
| 2026-05-05 12:24 | 42.55551 | 14.31203 | 2588 ft | 223 kts | 217° |
| 2026-05-05 12:24 | 42.54348 | 14.29929 | 2323 ft | 219 kts | 217° |
| 2026-05-05 12:24 | 42.53154 | 14.28669 | 2198 ft | 214 kts | 217° |
| 2026-05-05 12:24 | 42.51993 | 14.27462 | 2072 ft | 206 kts | 217° |
| 2026-05-05 12:25 | 42.50897 | 14.26330 | 1775 ft | 195 kts | 216° |
| 2026-05-05 12:25 | 42.49850 | 14.25249 | 1529 ft | 182 kts | 216° |
| 2026-05-05 12:25 | 42.48867 | 14.24233 | 1261 ft | 172 kts | 216° |
| 2026-05-05 12:25 | 42.47952 | 14.23278 | 1007 ft | 161 kts | 217° |
| 2026-05-05 12:26 | 42.47103 | 14.22395 | 804 ft | 150 kts | 216° |
| 2026-05-05 12:26 | 42.46264 | 14.21532 | 636 ft | 151 kts | 216° |
| 2026-05-05 12:26 | 42.45426 | 14.20678 | 447 ft | 151 kts | 216° |
| 2026-05-05 12:26 | 42.44587 | 14.19792 | 275 ft | 151 kts | 216° |
| 2026-05-05 12:27 | 42.43743 | 14.18941 | 55 ft | 152 kts | 217° |
| 2026-05-05 12:27 | 42.42982 | 14.18158 | 49 ft | 104 kts | 216° |
| 2026-05-05 12:27 | 42.42611 | 14.17901 | 53 ft | 27 kts | 166° |
| 2026-05-05 12:27 | 42.42609 | 14.18046 | 52 ft | 20 kts | 44° |
| 2026-05-05 12:28 | 42.42718 | 14.18165 | 51 ft | 20 kts | 36° |
| 2026-05-05 12:28 | 42.42834 | 14.18279 | 49 ft | 20 kts | 37° |
| 2026-05-05 12:28 | 42.42947 | 14.18397 | 48 ft | 20 kts | 37° |
| 2026-05-05 12:28 | 42.43018 | 14.18526 | 46 ft | 17 kts | 79° |
| 2026-05-05 12:29 | 42.43052 | 14.18639 | 46 ft | 10 kts | 57° |
| 2026-05-05 12:29 | 42.43041 | 14.18704 | 46 ft | 4 kts | 125° |
| 2026-05-05 12:29 | 42.43030 | 14.18725 | 46 ft | 0 kts | 126° |